Time;durP1;ratioP1;P1;durP2;ratioP2;P2;SDS_P1;SDS_P2;PMS_P1;PMS_P2;Temp;Humidity;BMP_temperature;BMP_pressure;BME280_temperature;BME280_humidity;BME280_pressure;Samples;Min_cycle;Max_cycle;Signal;HPM_P1;HPM_P2
2022/06/25 00:01:26;;;;;;;;;;;;;;;15.00;87.78;90841.59;5052106;28;20418;-63
2022/06/25 00:03:52;;;;;;;;;;;;;;;15.07;86.01;90849.84;5052031;28;19966;-63
2022/06/25 00:06:17;;;;;;;;;;;;;;;15.08;83.84;90849.50;5052028;28;19916;-63
2022/06/25 00:08:47;;;;;;;;;;;;;;;15.23;81.21;90846.13;5051936;28;19935;-64
2022/06/25 00:12:31;;;;;;;;;;;;;;;15.23;80.40;90845.34;5051961;28;19916;-63
2022/06/25 00:13:58;;;;;;;;;;;;;;;15.18;81.08;90848.28;5051873;28;19941;-64
2022/06/25 00:16:24;;;;;;;;;;;;;;;15.10;81.76;90847.25;5051924;28;20017;-64
2022/06/25 00:18:49;;;;;;;;;;;;;;;15.15;79.95;90839.00;5051849;28;19913;-63
2022/06/25 00:21:14;;;;;;;;;;;;;;;15.13;81.35;90835.09;5051808;28;19912;-63
2022/06/25 00:23:40;;;;;;;;;;;;;;;15.11;81.56;90835.44;5051746;28;19920;-64
2022/06/25 00:26:05;;;;;;;;;;;;;;;15.14;82.36;90836.66;5050505;28;20313;-64
2022/06/25 00:28:30;;;;;;;;;;;;;;;15.21;81.12;90829.59;5051708;28;19913;-65
2022/06/25 00:30:56;;;;;;;;;;;;;;;15.33;78.96;90838.75;5051688;28;19919;-64
2022/06/25 00:33:21;;;;;;;;;;;;;;;15.38;77.71;90841.97;5051652;28;19917;-64
2022/06/25 00:35:46;;;;;;;;;;;;;;;15.40;77.96;90833.56;5051645;28;19975;-64
2022/06/25 00:38:12;;;;;;;;;;;;;;;15.28;78.41;90823.66;5051546;28;19939;-65
2022/06/25 00:40:37;;;;;;;;;;;;;;;15.24;79.09;90831.59;5051634;28;19912;-64
2022/06/25 00:43:02;;;;;;;;;;;;;;;15.24;79.33;90820.88;5051418;28;19939;-64
2022/06/25 00:45:28;;;;;;;;;;;;;;;15.24;81.34;90823.56;5049978;28;19919;-64
2022/06/25 00:47:53;;;;;;;;;;;;;;;15.14;83.46;90826.69;5051631;28;19955;-64
2022/06/25 00:50:18;;;;;;;;;;;;;;;15.01;86.46;90822.50;5051397;28;20366;-64
2022/06/25 00:52:47;;;;;;;;;;;;;;;15.03;88.10;90812.22;5051466;28;20017;-64
2022/06/25 00:55:12;;;;;;;;;;;;;;;14.98;90.69;90818.59;5051475;28;19921;-64
2022/06/25 00:57:42;;;;;;;;;;;;;;;14.92;93.38;90813.81;5051709;28;20320;-64
2022/06/25 01:00:09;;;;;;;;;;;;;;;14.83;95.58;90810.47;5051320;28;20043;-64
2022/06/25 01:02:35;;;;;;;;;;;;;;;14.71;98.26;90808.59;5051311;28;19920;-64
2022/06/25 01:05:04;;;;;;;;;;;;;;;14.65;100.00;90800.00;5051421;28;19913;-64
2022/06/25 01:07:29;;;;;;;;;;;;;;;14.67;100.00;90803.13;5051375;28;19913;-64
2022/06/25 01:09:55;;;;;;;;;;;;;;;14.64;100.00;90803.78;5051269;28;20356;-64
2022/06/25 01:12:20;;;;;;;;;;;;;;;14.71;100.00;90805.13;5051341;28;19913;-64
2022/06/25 01:14:46;;;;;;;;;;;;;;;14.78;100.00;90789.28;5051266;28;20386;-64
2022/06/25 01:17:11;;;;;;;;;;;;;;;14.73;100.00;90794.88;5051244;28;19912;-64
2022/06/25 01:19:37;;;;;;;;;;;;;;;14.65;100.00;90793.84;5051082;28;19944;-64
2022/06/25 01:22:03;;;;;;;;;;;;;;;14.60;100.00;90794.09;5051170;28;19916;-64
2022/06/25 01:24:29;;;;;;;;;;;;;;;14.53;100.00;90800.03;5049854;28;19948;-64
2022/06/25 01:26:54;;;;;;;;;;;;;;;14.43;100.00;90796.97;5051137;28;19948;-64
2022/06/25 01:29:20;;;;;;;;;;;;;;;14.42;100.00;90796.19;5051036;28;19913;-64
2022/06/25 01:31:45;;;;;;;;;;;;;;;14.46;100.00;90812.38;5051097;28;19924;-64
2022/06/25 01:34:11;;;;;;;;;;;;;;;14.50;100.00;90806.00;5051058;28;20344;-64
2022/06/25 01:36:36;;;;;;;;;;;;;;;14.47;100.00;90814.72;5051131;28;19924;-64
2022/06/25 01:39:02;;;;;;;;;;;;;;;14.49;100.00;90815.16;5050955;28;19918;-64
2022/06/25 01:41:27;;;;;;;;;;;;;;;14.46;100.00;90826.53;5051048;28;20341;-64
2022/06/25 01:43:53;;;;;;;;;;;;;;;14.41;100.00;90816.03;5050778;28;20310;-64
2022/06/25 01:46:18;;;;;;;;;;;;;;;14.36;100.00;90813.59;5051023;28;19913;-64
2022/06/25 01:48:43;;;;;;;;;;;;;;;14.32;100.00;90823.38;5050912;28;19946;-64
2022/06/25 01:51:09;;;;;;;;;;;;;;;14.32;100.00;90815.34;5050884;28;19931;-64
2022/06/25 01:53:34;;;;;;;;;;;;;;;14.25;100.00;90817.81;5050977;28;19920;-64
2022/06/25 01:55:59;;;;;;;;;;;;;;;14.33;100.00;90819.59;5051257;28;20383;-63
2022/06/25 01:58:25;;;;;;;;;;;;;;;14.34;100.00;90818.47;5054407;28;19912;-63
2022/06/25 02:00:50;;;;;;;;;;;;;;;14.22;100.00;90819.25;5054438;28;19913;-63
2022/06/25 02:03:15;;;;;;;;;;;;;;;14.15;100.00;90816.34;5054342;28;20374;-63
2022/06/25 02:05:56;;;;;;;;;;;;;;;14.06;100.00;90821.81;5201990;23;19974;-64
2022/06/25 02:08:22;;;;;;;;;;;;;;;14.02;100.00;90820.88;5054458;28;19916;-64
2022/06/25 02:10:48;;;;;;;;;;;;;;;14.09;100.00;90834.50;5054147;28;20385;-64
2022/06/25 02:13:13;;;;;;;;;;;;;;;14.22;100.00;90824.63;5054178;28;19912;-64
2022/06/25 02:15:40;;;;;;;;;;;;;;;14.26;100.00;90824.72;5053987;28;19920;-65
2022/06/25 02:18:05;;;;;;;;;;;;;;;14.31;100.00;90819.16;5054315;28;19913;-64
2022/06/25 02:20:30;;;;;;;;;;;;;;;14.41;100.00;90821.38;5053924;28;19912;-64
2022/06/25 02:22:56;;;;;;;;;;;;;;;14.48;100.00;90810.94;5053895;28;19993;-64
2022/06/25 02:25:21;;;;;;;;;;;;;;;14.52;100.00;90811.06;5053823;28;19917;-64
2022/06/25 02:27:47;;;;;;;;;;;;;;;14.61;100.00;90809.81;5053843;28;19917;-64
2022/06/25 02:30:12;;;;;;;;;;;;;;;14.73;100.00;90819.75;5053766;28;19913;-64
2022/06/25 02:32:37;;;;;;;;;;;;;;;14.79;100.00;90825.66;5053780;28;19913;-64
2022/06/25 02:35:03;;;;;;;;;;;;;;;14.83;100.00;90823.84;5053677;28;19919;-64
2022/06/25 02:37:28;;;;;;;;;;;;;;;14.91;100.00;90825.63;5053910;28;19913;-64
2022/06/25 02:39:53;;;;;;;;;;;;;;;15.00;100.00;90820.94;5053657;28;19913;-64
2022/06/25 02:42:19;;;;;;;;;;;;;;;15.10;100.00;90825.81;5053493;28;20374;-64
2022/06/25 02:44:44;;;;;;;;;;;;;;;15.25;100.00;90827.03;5053416;28;20010;-64
2022/06/25 02:47:09;;;;;;;;;;;;;;;15.25;100.00;90821.66;5053564;28;19919;-64
2022/06/25 02:49:34;;;;;;;;;;;;;;;15.34;100.00;90816.19;5053532;28;20349;-64
2022/06/25 02:52:00;;;;;;;;;;;;;;;15.36;100.00;90819.31;5053408;28;20370;-64
2022/06/25 02:54:25;;;;;;;;;;;;;;;15.36;100.00;90824.66;5053170;28;19923;-64
2022/06/25 02:59:38;;;;;;;;;;;;;;;15.28;100.00;90832.47;5053336;28;20354;-64
2022/06/25 03:02:03;;;;;;;;;;;;;;;15.41;100.00;90829.78;5053242;28;19952;-64
2022/06/25 03:04:29;;;;;;;;;;;;;;;15.46;100.00;90824.97;5052909;28;19913;-64
2022/06/25 03:06:54;;;;;;;;;;;;;;;15.56;100.00;90821.00;5053259;28;19919;-64
2022/06/25 03:09:19;;;;;;;;;;;;;;;15.73;100.00;90826.13;5053131;28;19935;-64
2022/06/25 03:11:45;;;;;;;;;;;;;;;15.86;100.00;90826.84;5053163;28;20572;-64
2022/06/25 03:14:11;;;;;;;;;;;;;;;15.97;100.00;90832.50;5053049;28;19920;-65
2022/06/25 03:16:36;;;;;;;;;;;;;;;16.09;100.00;90821.69;5052922;28;19916;-64
2022/06/25 03:19:02;;;;;;;;;;;;;;;16.02;100.00;90833.03;5052870;28;20021;-64
2022/06/25 03:21:27;;;;;;;;;;;;;;;16.03;100.00;90833.81;5053147;28;19923;-64
2022/06/25 03:23:52;;;;;;;;;;;;;;;16.06;100.00;90825.06;5052773;28;20389;-64
2022/06/25 03:26:18;;;;;;;;;;;;;;;16.11;100.00;90828.28;5034730;28;19920;-64
2022/06/25 03:28:43;;;;;;;;;;;;;;;16.13;100.00;90833.31;5052763;28;20305;-64
2022/06/25 03:31:08;;;;;;;;;;;;;;;16.22;100.00;90847.34;5052642;28;20371;-64
2022/06/25 03:33:34;;;;;;;;;;;;;;;16.35;100.00;90846.13;5052551;28;19912;-64
2022/06/25 03:35:59;;;;;;;;;;;;;;;16.45;100.00;90842.19;5052506;28;19920;-64
2022/06/25 03:38:24;;;;;;;;;;;;;;;16.52;100.00;90852.31;5052511;28;19919;-64
2022/06/25 03:41:32;;;;;;;;;;;;;;;16.66;100.00;90849.97;5052451;28;19912;-64
2022/06/25 03:43:35;;;;;;;;;;;;;;;16.75;100.00;90837.97;5052272;28;19913;-64
2022/06/25 03:46:00;;;;;;;;;;;;;;;16.79;100.00;90835.34;5052376;28;20374;-64
2022/06/25 03:48:25;;;;;;;;;;;;;;;16.85;100.00;90831.25;5052503;28;19924;-64
2022/06/25 03:50:51;;;;;;;;;;;;;;;16.92;100.00;90827.97;5052285;28;20019;-64
2022/06/25 03:53:16;;;;;;;;;;;;;;;17.08;100.00;90827.94;5052139;28;19917;-65
2022/06/25 03:55:41;;;;;;;;;;;;;;;17.33;100.00;90834.63;5052149;28;19969;-64
2022/06/25 03:58:07;;;;;;;;;;;;;;;17.58;100.00;90835.94;5052496;28;20405;-64
2022/06/25 04:00:32;;;;;;;;;;;;;;;17.80;97.50;90833.72;5052058;28;19916;-64
2022/06/25 04:02:57;;;;;;;;;;;;;;;17.97;98.11;90841.34;5052063;28;19956;-64
2022/06/25 04:05:22;;;;;;;;;;;;;;;18.08;96.98;90831.56;5051784;28;20374;-64
2022/06/25 04:07:49;;;;;;;;;;;;;;;18.12;96.00;90840.47;5051975;28;19916;-65
2022/06/25 04:10:14;;;;;;;;;;;;;;;18.25;94.76;90820.34;5052197;28;19912;-64
2022/06/25 04:12:40;;;;;;;;;;;;;;;18.40;96.11;90826.75;5051901;28;19913;-65
2022/06/25 04:15:05;;;;;;;;;;;;;;;18.51;94.67;90830.44;5051790;28;19917;-64
2022/06/25 04:17:30;;;;;;;;;;;;;;;18.64;94.19;90822.19;5051918;28;19955;-65
2022/06/25 04:19:56;;;;;;;;;;;;;;;18.66;94.71;90828.00;5051342;28;20349;-64
2022/06/25 04:22:21;;;;;;;;;;;;;;;18.91;92.59;90823.00;5051802;28;20394;-65
2022/06/25 04:24:46;;;;;;;;;;;;;;;19.02;92.15;90815.88;5051726;28;19916;-65
2022/06/25 04:29:03;;;;;;;;;;;;;;;19.25;90.23;90821.19;5051684;28;19971;-65
2022/06/25 04:29:57;;;;;;;;;;;;;;;19.56;83.74;90820.09;5051611;28;19920;-64
2022/06/25 04:32:22;;;;;;;;;;;;;;;19.90;80.87;90816.31;5051572;28;20279;-64
2022/06/25 04:34:47;;;;;;;;;;;;;;;20.10;79.75;90826.94;5051548;28;19920;-65
2022/06/25 04:37:13;;;;;;;;;;;;;;;20.23;77.27;90823.63;5033687;28;19921;-65
2022/06/25 04:39:38;;;;;;;;;;;;;;;20.31;76.87;90821.78;5051613;28;19913;-64
2022/06/25 04:42:04;;;;;;;;;;;;;;;20.50;76.17;90835.13;5051604;28;19913;-65
2022/06/25 04:44:29;;;;;;;;;;;;;;;20.76;75.71;90836.91;5051305;28;19979;-65
2022/06/25 04:46:54;;;;;;;;;;;;;;;21.02;74.99;90827.88;5051424;28;20013;-64
2022/06/25 04:49:19;;;;;;;;;;;;;;;21.09;72.68;90836.03;5051286;28;19912;-65
2022/06/25 04:51:45;;;;;;;;;;;;;;;21.29;71.49;90830.41;5051323;28;19913;-65
2022/06/25 04:54:10;;;;;;;;;;;;;;;21.44;71.10;90826.63;5051128;28;20301;-65
2022/06/25 04:56:36;;;;;;;;;;;;;;;21.23;74.81;90833.44;5051402;28;19948;-65
2022/06/25 04:59:01;;;;;;;;;;;;;;;21.37;73.86;90821.97;5051294;28;20313;-65
2022/06/25 05:01:27;;;;;;;;;;;;;;;21.56;70.61;90823.63;5051244;28;19922;-65
2022/06/25 05:03:52;;;;;;;;;;;;;;;21.80;69.22;90833.81;5051248;28;19912;-65
2022/06/25 05:06:17;;;;;;;;;;;;;;;21.69;68.42;90827.56;5050964;28;20382;-65
2022/06/25 05:08:42;;;;;;;;;;;;;;;21.98;70.20;90827.72;5051147;28;19912;-65
2022/06/25 05:11:08;;;;;;;;;;;;;;;22.16;68.86;90828.59;5051258;28;20401;-65
2022/06/25 05:13:33;;;;;;;;;;;;;;;21.90;70.31;90831.53;5051118;28;20382;-65
2022/06/25 05:15:58;;;;;;;;;;;;;;;21.59;72.69;90836.41;5051045;28;20374;-65
2022/06/25 05:18:24;;;;;;;;;;;;;;;21.70;72.96;90833.75;5051587;28;19913;-65
2022/06/25 05:20:49;;;;;;;;;;;;;;;21.77;74.88;90839.19;5051089;28;19967;-65
2022/06/25 05:23:14;;;;;;;;;;;;;;;21.97;72.99;90847.84;5050930;28;19913;-65
2022/06/25 05:25:40;;;;;;;;;;;;;;;21.36;73.96;90849.41;5051149;28;19970;-65
2022/06/25 05:28:05;;;;;;;;;;;;;;;21.62;76.42;90849.19;5051073;28;19913;-65
2022/06/25 05:30:31;;;;;;;;;;;;;;;21.43;75.85;90852.16;5051031;28;20364;-65
2022/06/25 05:32:56;;;;;;;;;;;;;;;21.79;74.13;90853.94;5054845;28;20266;-66
2022/06/25 05:35:22;;;;;;;;;;;;;;;21.90;72.79;90850.50;5054814;28;19923;-65
2022/06/25 05:37:47;;;;;;;;;;;;;;;22.17;72.07;90857.22;5054786;28;19919;-65
2022/06/25 05:40:13;;;;;;;;;;;;;;;22.31;71.62;90854.59;5054897;28;19916;-65
2022/06/25 05:42:38;;;;;;;;;;;;;;;22.76;71.06;90848.91;5054744;28;19919;-65
2022/06/25 05:45:04;;;;;;;;;;;;;;;23.11;70.35;90861.75;5054635;28;19930;-66
2022/06/25 05:47:29;;;;;;;;;;;;;;;23.38;68.47;90862.94;5054522;28;19912;-65
2022/06/25 05:49:55;;;;;;;;;;;;;;;23.89;67.57;90861.72;5054590;28;19963;-65
2022/06/25 05:52:20;;;;;;;;;;;;;;;24.91;63.66;90859.00;5054489;28;20011;-65
2022/06/25 05:54:45;;;;;;;;;;;;;;;25.44;59.42;90855.16;5054355;28;19916;-65
2022/06/25 05:57:11;;;;;;;;;;;;;;;28.34;52.68;90866.19;5054701;28;20305;-65
2022/06/25 05:59:36;;;;;;;;;;;;;;;29.18;49.57;90873.13;5054343;28;19960;-65
2022/06/25 06:02:01;;;;;;;;;;;;;;;27.82;53.58;90874.16;5054407;28;20340;-66
2022/06/25 06:04:27;;;;;;;;;;;;;;;26.71;54.33;90871.44;5054261;28;19917;-66
2022/06/25 06:06:52;;;;;;;;;;;;;;;28.38;52.06;90876.31;5054222;28;20419;-65
2022/06/25 06:09:17;;;;;;;;;;;;;;;31.24;45.01;90877.34;5054241;28;19912;-65
2022/06/25 06:11:43;;;;;;;;;;;;;;;29.85;45.90;90870.06;5053886;28;19939;-65
2022/06/25 06:14:08;;;;;;;;;;;;;;;28.29;48.93;90869.44;5047885;28;20071;-66
2022/06/25 06:16:33;;;;;;;;;;;;;;;26.68;52.52;90874.97;5033778;28;20371;-65
2022/06/25 06:18:59;;;;;;;;;;;;;;;29.65;48.90;90875.59;5033956;28;19913;-65
2022/06/25 06:21:24;;;;;;;;;;;;;;;31.50;45.90;90880.91;5033927;28;19909;-65
2022/06/25 06:23:49;;;;;;;;;;;;;;;33.62;41.90;90882.34;5033731;28;19917;-65
2022/06/25 06:26:14;;;;;;;;;;;;;;;35.30;39.86;90890.75;5033406;28;19941;-66
2022/06/25 06:28:41;;;;;;;;;;;;;;;35.92;37.55;90876.47;5033938;28;19971;-65
2022/06/25 06:31:06;;;;;;;;;;;;;;;35.59;36.17;90873.66;5033741;28;19928;-66
2022/06/25 06:33:31;;;;;;;;;;;;;;;36.18;36.95;90870.53;5033648;28;19971;-65
2022/06/25 06:35:57;;;;;;;;;;;;;;;35.23;37.76;90876.50;5033720;28;19917;-65
2022/06/25 06:38:22;;;;;;;;;;;;;;;33.78;39.22;90875.81;5033498;28;19917;-64
2022/06/25 06:40:47;;;;;;;;;;;;;;;34.16;39.68;90864.44;5033136;28;19920;-65
2022/06/25 06:43:13;;;;;;;;;;;;;;;34.26;39.27;90868.78;5033242;28;19917;-65
2022/06/25 06:45:38;;;;;;;;;;;;;;;34.66;37.76;90871.44;5033312;28;20375;-65
2022/06/25 06:48:03;;;;;;;;;;;;;;;35.06;36.97;90870.53;5033435;28;19920;-65
2022/06/25 06:50:29;;;;;;;;;;;;;;;34.54;38.85;90867.56;5033325;28;19913;-65
2022/06/25 06:52:54;;;;;;;;;;;;;;;35.10;38.06;90868.38;5033298;28;19913;-66
2022/06/25 06:55:19;;;;;;;;;;;;;;;34.92;38.85;90871.16;5032648;28;19935;-66
2022/06/25 06:57:45;;;;;;;;;;;;;;;35.47;36.97;90871.84;5033123;28;19913;-67
2022/06/25 07:00:10;;;;;;;;;;;;;;;34.64;38.53;90873.88;5033350;28;19917;-65
2022/06/25 07:02:36;;;;;;;;;;;;;;;34.79;39.55;90869.28;5033051;28;20307;-66
2022/06/25 07:05:01;;;;;;;;;;;;;;;35.27;38.71;90869.56;5032923;28;19960;-66
2022/06/25 07:07:27;;;;;;;;;;;;;;;36.04;37.49;90868.44;5032884;28;20383;-66
2022/06/25 07:09:52;;;;;;;;;;;;;;;37.18;38.15;90871.81;5032734;28;19917;-67
2022/06/25 07:12:17;;;;;;;;;;;;;;;36.65;36.82;90871.78;5032906;28;20343;-66
2022/06/25 07:14:43;;;;;;;;;;;;;;;36.74;36.26;90872.47;5032859;28;19913;-66
2022/06/25 07:17:08;;;;;;;;;;;;;;;39.53;33.97;90878.06;5032722;28;20438;-67
2022/06/25 07:19:33;;;;;;;;;;;;;;;41.47;31.08;90879.03;5032880;28;19912;-66
2022/06/25 07:21:59;;;;;;;;;;;;;;;41.96;30.87;90874.78;5032711;28;20402;-67
2022/06/25 07:24:24;;;;;;;;;;;;;;;38.30;34.12;90876.50;5032787;28;20000;-67
2022/06/25 07:26:50;;;;;;;;;;;;;;;35.44;37.34;90878.31;5032104;28;19921;-66
2022/06/25 07:29:15;;;;;;;;;;;;;;;33.11;41.81;90873.59;5032355;28;19913;-66
2022/06/25 07:31:40;;;;;;;;;;;;;;;32.36;44.66;90871.50;5032479;28;19920;-66
2022/06/25 07:34:06;;;;;;;;;;;;;;;31.40;46.07;90865.47;5032189;28;20086;-65
2022/06/25 07:36:31;;;;;;;;;;;;;;;30.44;48.47;90871.69;5032200;28;19913;-67
2022/06/25 07:38:57;;;;;;;;;;;;;;;30.45;47.81;90865.00;5032332;28;19916;-66
2022/06/25 07:41:22;;;;;;;;;;;;;;;30.23;48.93;90861.28;5031670;28;19924;-68
2022/06/25 07:43:48;;;;;;;;;;;;;;;28.95;50.90;90865.03;5031959;28;20378;-66
2022/06/25 07:46:13;;;;;;;;;;;;;;;28.21;52.09;90876.19;5032138;28;20382;-68
2022/06/25 07:48:38;;;;;;;;;;;;;;;28.45;52.96;90871.47;5032306;28;19917;-66
2022/06/25 07:53:48;;;;;;;;;;;;;;;29.52;51.15;90872.78;5031094;28;20401;-67
2022/06/25 07:56:13;;;;;;;;;;;;;;;28.90;53.76;90874.53;5031535;28;19913;-66
2022/06/25 07:58:39;;;;;;;;;;;;;;;29.93;51.27;90874.16;5043200;28;19913;-65
2022/06/25 08:01:04;;;;;;;;;;;;;;;31.13;48.90;90876.88;5057129;28;19917;-67
2022/06/25 08:03:30;;;;;;;;;;;;;;;31.60;48.57;90882.56;5051852;28;19919;-68
2022/06/25 08:05:56;;;;;;;;;;;;;;;33.24;46.25;90888.06;5051556;28;19924;-68
2022/06/25 08:08:21;;;;;;;;;;;;;;;34.04;44.58;90892.94;5057174;28;19968;-68
2022/06/25 08:10:46;;;;;;;;;;;;;;;35.28;41.07;90892.47;5071229;28;19928;-67
2022/06/25 08:13:11;;;;;;;;;;;;;;;31.92;45.33;90889.84;5055761;28;19924;-67
2022/06/25 08:15:37;;;;;;;;;;;;;;;32.78;44.96;90890.50;5060038;28;19921;-67
2022/06/25 08:18:02;;;;;;;;;;;;;;;33.54;44.68;90890.09;5056756;28;19943;-67
2022/06/25 08:20:28;;;;;;;;;;;;;;;35.02;41.46;90878.97;5061454;28;20392;-68
2022/06/25 08:22:53;;;;;;;;;;;;;;;35.67;41.29;90891.47;5060918;28;20306;-67
2022/06/25 08:25:19;;;;;;;;;;;;;;;36.13;38.82;90893.31;5059569;28;19912;-66
2022/06/25 08:27:53;;;;;;;;;;;;;;;34.16;41.59;90890.06;5071118;28;20010;-66
2022/06/25 08:30:22;;;;;;;;;;;;;;;31.78;44.65;90882.78;5060616;28;19913;-66
2022/06/25 08:32:48;;;;;;;;;;;;;;;34.74;41.73;90891.25;5051331;28;19917;-65
2022/06/25 08:35:13;;;;;;;;;;;;;;;34.61;40.35;90883.09;5051199;28;20287;-67
2022/06/25 08:37:39;;;;;;;;;;;;;;;31.87;45.11;90884.88;5058414;28;19923;-66
2022/06/25 08:40:06;;;;;;;;;;;;;;;34.66;42.47;90882.47;5059163;28;19921;-67
2022/06/25 08:42:31;;;;;;;;;;;;;;;35.67;39.62;90887.94;5061456;28;19919;-67
2022/06/25 08:44:56;;;;;;;;;;;;;;;35.56;40.60;90884.91;5060632;28;19921;-66
2022/06/25 08:47:22;;;;;;;;;;;;;;;36.57;38.13;90888.00;5062370;28;19923;-66
2022/06/25 08:49:48;;;;;;;;;;;;;;;37.64;37.37;90888.06;5066996;28;19923;-66
2022/06/25 08:52:14;;;;;;;;;;;;;;;36.42;38.42;90895.47;5060398;28;20352;-67
2022/06/25 08:54:39;;;;;;;;;;;;;;;37.59;37.64;90897.81;5056972;28;19913;-67
2022/06/25 08:57:06;;;;;;;;;;;;;;;37.07;37.42;90896.56;5054175;28;19917;-68
2022/06/25 08:59:31;;;;;;;;;;;;;;;37.22;38.67;90904.94;5040227;28;20379;-68
2022/06/25 09:01:57;;;;;;;;;;;;;;;34.31;40.72;90883.97;5051062;28;19927;-68
2022/06/25 09:04:23;;;;;;;;;;;;;;;34.72;40.88;90891.72;5039761;28;19921;-70
2022/06/25 09:06:49;;;;;;;;;;;;;;;36.62;38.76;90892.16;5040009;28;20417;-71
2022/06/25 09:09:16;;;;;;;;;;;;;;;38.45;36.84;90898.69;5030365;28;19916;-68
2022/06/25 09:11:49;;;;;;;;;;;;;;;36.89;37.93;90903.81;5037503;28;19982;-69
2022/06/25 09:14:19;;;;;;;;;;;;;;;35.42;40.75;90897.38;5034880;28;20365;-68
2022/06/25 09:16:57;;;;;;;;;;;;;;;35.48;41.08;90900.28;5037058;28;19931;-68
2022/06/25 09:19:29;;;;;;;;;;;;;;;34.42;42.39;90895.38;5053879;28;20438;-68
2022/06/25 09:21:54;;;;;;;;;;;;;;;32.47;45.84;90898.66;5050179;28;19951;-68
2022/06/25 09:24:20;;;;;;;;;;;;;;;31.04;46.98;90895.97;5037063;28;19963;-69
2022/06/25 09:26:52;;;;;;;;;;;;;;;29.47;50.75;90906.19;5054697;28;19912;-66
2022/06/25 09:29:17;;;;;;;;;;;;;;;28.28;53.69;90906.19;5051398;28;19925;-67
2022/06/25 09:31:43;;;;;;;;;;;;;;;27.54;55.96;90901.91;5054649;28;19919;-69
2022/06/25 09:34:08;;;;;;;;;;;;;;;26.36;61.01;90900.69;5054405;28;19924;-66
2022/06/25 09:36:34;;;;;;;;;;;;;;;25.46;78.23;90910.00;5054357;28;19936;-66
2022/06/25 09:38:59;;;;;;;;;;;;;;;24.99;98.62;90904.06;5054089;28;19917;-66
2022/06/25 09:41:25;;;;;;;;;;;;;;;24.77;100.00;90923.22;5054346;28;19913;-66
2022/06/25 09:43:51;;;;;;;;;;;;;;;24.92;100.00;90923.91;5053820;28;20405;-67
2022/06/25 09:46:16;;;;;;;;;;;;;;;24.65;100.00;90922.88;5042174;28;19920;-66
2022/06/25 09:48:42;;;;;;;;;;;;;;;23.90;100.00;90920.34;5051081;28;19917;-66
2022/06/25 09:51:10;;;;;;;;;;;;;;;23.34;100.00;90921.84;5054257;28;20011;-66
2022/06/25 09:53:49;;;;;;;;;;;;;;;24.20;100.00;90917.16;5053684;28;20055;-66
2022/06/25 09:56:16;;;;;;;;;;;;;;;25.00;100.00;90908.34;5054072;28;19913;-65
2022/06/25 09:58:41;;;;;;;;;;;;;;;24.84;100.00;90921.63;5054051;28;19913;-66
2022/06/25 10:01:07;;;;;;;;;;;;;;;24.95;100.00;90920.41;5053960;28;19928;-66
2022/06/25 10:03:33;;;;;;;;;;;;;;;27.19;100.00;90914.91;5053964;28;20374;-66
2022/06/25 10:05:59;;;;;;;;;;;;;;;29.34;78.56;90924.44;5053805;28;19927;-67
2022/06/25 10:08:26;;;;;;;;;;;;;;;30.54;71.43;90919.28;5053492;28;19913;-66
2022/06/25 10:10:54;;;;;;;;;;;;;;;30.11;64.79;90918.41;5053936;28;20000;-66
2022/06/25 10:13:21;;;;;;;;;;;;;;;31.25;64.73;90911.91;5053851;28;19913;-66
2022/06/25 10:15:46;;;;;;;;;;;;;;;31.04;63.45;90913.22;5053292;28;19916;-66
2022/06/25 10:18:12;;;;;;;;;;;;;;;32.41;58.73;90914.97;5051287;28;20333;-65
2022/06/25 10:20:39;;;;;;;;;;;;;;;32.88;56.94;90916.94;5053917;28;19917;-67
2022/06/25 10:23:05;;;;;;;;;;;;;;;31.09;53.87;90904.47;5054158;28;19912;-67
2022/06/25 10:25:31;;;;;;;;;;;;;;;29.58;59.98;90897.72;5035787;28;20012;-67
2022/06/25 10:28:11;;;;;;;;;;;;;;;28.81;61.23;90904.41;5053751;28;20000;-66
2022/06/25 10:30:42;;;;;;;;;;;;;;;28.62;64.92;90905.19;5053773;28;19913;-66
2022/06/25 10:33:07;;;;;;;;;;;;;;;28.84;66.70;90911.75;5053649;28;20015;-66
2022/06/25 10:35:34;;;;;;;;;;;;;;;28.81;65.46;90915.34;5053632;28;19999;-66
2022/06/25 10:38:01;;;;;;;;;;;;;;;27.91;67.30;90911.88;5053678;28;19912;-66
2022/06/25 10:40:27;;;;;;;;;;;;;;;27.38;72.74;90918.91;5053547;28;20006;-67
2022/06/25 10:43:01;;;;;;;;;;;;;;;27.50;78.72;90910.16;5053624;28;19963;-66
2022/06/25 10:45:33;;;;;;;;;;;;;;;28.03;83.58;90897.63;5053493;28;19921;-67
2022/06/25 10:47:59;;;;;;;;;;;;;;;30.95;64.21;90893.88;5053540;28;19966;-67
2022/06/25 10:50:25;;;;;;;;;;;;;;;31.05;56.29;90898.28;5053537;28;19963;-67
2022/06/25 10:53:05;;;;;;;;;;;;;;;29.98;58.90;90894.78;5053266;28;19952;-66
2022/06/25 10:55:35;;;;;;;;;;;;;;;29.62;61.53;90889.41;5053317;28;19971;-67
2022/06/25 10:58:16;;;;;;;;;;;;;;;29.56;57.85;90886.41;5053340;28;20400;-67
2022/06/25 11:00:50;;;;;;;;;;;;;;;29.91;57.21;90879.31;5053630;28;20338;-67
2022/06/25 11:03:16;;;;;;;;;;;;;;;30.28;57.89;90868.97;5053563;28;20297;-67
2022/06/25 11:05:43;;;;;;;;;;;;;;;29.79;59.16;90877.25;5052954;28;19917;-67
2022/06/25 11:08:09;;;;;;;;;;;;;;;28.75;59.23;90881.44;5053055;28;19939;-67
2022/06/25 11:10:37;;;;;;;;;;;;;;;28.34;62.63;90877.16;5053286;28;19913;-66
2022/06/25 11:13:03;;;;;;;;;;;;;;;28.00;65.01;90874.59;5053057;28;20440;-67
2022/06/25 11:15:42;;;;;;;;;;;;;;;27.60;71.74;90876.41;5052975;28;19912;-67
2022/06/25 11:18:12;;;;;;;;;;;;;;;27.45;73.25;90881.31;5052930;28;19959;-66
2022/06/25 11:20:38;;;;;;;;;;;;;;;27.47;75.58;90880.94;5052947;28;19970;-67
2022/06/25 11:23:04;;;;;;;;;;;;;;;27.53;71.36;90879.25;5052972;28;19912;-67
2022/06/25 11:28:47;;;;;;;;;;;;;;;27.43;70.53;90861.84;5052746;28;19967;-66
2022/06/25 11:31:13;;;;;;;;;;;;;;;27.48;69.17;90855.16;5052785;28;20310;-66
2022/06/25 11:33:40;;;;;;;;;;;;;;;27.40;71.68;90846.28;5052571;28;20385;-66
2022/06/25 11:36:09;;;;;;;;;;;;;;;27.21;73.70;90846.97;5052695;28;19978;-66
2022/06/25 11:38:35;;;;;;;;;;;;;;;27.09;73.31;90851.03;5052601;28;19919;-66
2022/06/25 11:41:00;;;;;;;;;;;;;;;27.07;75.44;90852.63;5052586;28;19913;-66
2022/06/25 11:43:28;;;;;;;;;;;;;;;27.18;77.45;90836.88;5052443;28;19912;-66
2022/06/25 11:45:55;;;;;;;;;;;;;;;29.29;65.69;90839.22;5052578;28;19919;-66
2022/06/25 11:48:24;;;;;;;;;;;;;;;31.65;55.24;90837.22;5052458;28;19920;-66
2022/06/25 11:50:53;;;;;;;;;;;;;;;33.56;49.96;90853.78;5052383;28;19944;-66
2022/06/25 11:53:19;;;;;;;;;;;;;;;33.69;46.44;90850.94;5052199;28;20007;-67
2022/06/25 11:56:04;;;;;;;;;;;;;;;33.43;46.20;90853.88;5052326;28;19912;-67
2022/06/25 11:58:34;;;;;;;;;;;;;;;32.64;47.18;90846.91;5051495;28;19970;-67
2022/06/25 12:01:00;;;;;;;;;;;;;;;32.55;47.12;90846.84;5052181;28;20402;-66
2022/06/25 12:03:26;;;;;;;;;;;;;;;32.44;48.45;90844.47;5052075;28;19920;-67
2022/06/25 12:05:55;;;;;;;;;;;;;;;32.06;48.17;90839.06;5051916;28;19917;-66
2022/06/25 12:08:21;;;;;;;;;;;;;;;31.19;47.69;90836.66;5052083;28;20424;-66
2022/06/25 12:10:48;;;;;;;;;;;;;;;31.15;50.00;90835.97;5052059;28;19913;-66
2022/06/25 12:13:16;;;;;;;;;;;;;;;30.97;51.25;90831.03;5052012;28;20011;-68
2022/06/25 12:15:42;;;;;;;;;;;;;;;30.80;50.19;90835.06;5051951;28;19912;-67
2022/06/25 12:18:07;;;;;;;;;;;;;;;30.31;51.60;90835.97;5051947;28;19921;-67
2022/06/25 12:20:33;;;;;;;;;;;;;;;30.80;50.64;90837.81;5051812;28;20408;-67
2022/06/25 12:22:59;;;;;;;;;;;;;;;31.80;46.95;90847.34;5033818;28;19959;-67
2022/06/25 12:25:26;;;;;;;;;;;;;;;30.54;50.90;90845.94;5051860;28;19920;-67
2022/06/25 12:27:52;;;;;;;;;;;;;;;29.71;51.63;90837.50;5051881;28;19956;-66
2022/06/25 12:30:28;;;;;;;;;;;;;;;29.87;52.89;90821.03;5051595;28;19967;-66
2022/06/25 12:32:56;;;;;;;;;;;;;;;30.87;52.37;90832.88;5051782;28;19924;-67
2022/06/25 12:35:23;;;;;;;;;;;;;;;31.36;48.79;90826.34;5051493;28;20370;-67
2022/06/25 12:38:09;;;;;;;;;;;;;;;31.40;47.64;90824.25;5051589;28;19912;-67
2022/06/25 12:40:38;;;;;;;;;;;;;;;32.76;46.49;90813.03;5051162;28;19913;-67
2022/06/25 12:43:07;;;;;;;;;;;;;;;34.24;44.82;90825.03;5051560;28;20398;-68
2022/06/25 12:45:34;;;;;;;;;;;;;;;34.47;42.89;90822.94;5033968;28;20452;-68
2022/06/25 12:48:00;;;;;;;;;;;;;;;33.56;43.19;90829.72;5051398;28;20000;-68